createdAt,value
2022-08-03T00:04:03.232Z,3.30
2022-08-03T00:09:03.960Z,3.10
2022-08-03T00:14:04.678Z,2.90
2022-08-03T00:19:05.402Z,3.20
2022-08-03T00:24:06.160Z,3.10
2022-08-03T00:29:06.913Z,3.20
2022-08-03T00:34:07.724Z,3.00
2022-08-03T00:39:08.556Z,2.80
2022-08-03T00:44:09.288Z,2.70
2022-08-03T00:49:10.112Z,3.00
2022-08-03T00:54:10.812Z,3.10
2022-08-03T00:59:11.549Z,2.90
2022-08-03T01:04:12.128Z,3.10
2022-08-03T01:09:12.887Z,3.10
2022-08-03T01:14:18.600Z,3.00
2022-08-03T01:19:15.246Z,3.00
2022-08-03T01:24:14.964Z,3.00
2022-08-03T01:29:15.731Z,3.30
2022-08-03T01:34:16.461Z,3.20
2022-08-03T01:39:17.200Z,3.40
2022-08-03T01:44:29.918Z,3.30
2022-08-03T01:49:19.678Z,2.80
2022-08-03T01:54:19.364Z,3.00
2022-08-03T01:59:20.098Z,2.90
2022-08-03T02:04:20.825Z,2.80
2022-08-03T02:09:21.556Z,2.70
2022-08-03T02:14:22.291Z,2.80
2022-08-03T02:19:23.057Z,2.60
2022-08-03T02:24:23.779Z,3.00
2022-08-03T02:29:39.733Z,3.30
2022-08-03T02:34:26.118Z,3.20
2022-08-03T02:39:25.831Z,3.10
2022-08-03T02:44:26.570Z,3.10
2022-08-03T02:49:40.930Z,3.10
2022-08-03T02:54:28.897Z,3.10
2022-08-03T02:59:28.363Z,3.30
2022-08-03T03:04:33.185Z,3.00
2022-08-03T03:09:41.839Z,3.30
2022-08-03T03:14:33.699Z,3.10
2022-08-03T03:19:30.714Z,3.10
2022-08-03T03:24:38.388Z,2.80
2022-08-03T03:29:32.129Z,3.00
2022-08-03T03:34:33.833Z,3.00
2022-08-03T03:39:33.467Z,2.70
2022-08-03T03:44:34.193Z,3.00
2022-08-03T03:49:34.909Z,3.40
2022-08-03T03:54:35.570Z,3.00
2022-08-03T03:59:36.264Z,3.20
2022-08-03T04:04:36.998Z,4.60
2022-08-03T04:09:37.829Z,2.70
2022-08-03T04:14:38.633Z,3.20
2022-08-03T04:19:39.407Z,3.20
2022-08-03T04:24:40.186Z,2.80
2022-08-03T04:29:48.042Z,3.10
2022-08-03T04:34:42.416Z,3.10
2022-08-03T04:39:42.132Z,3.10
2022-08-03T04:44:43.084Z,5.30
2022-08-03T04:49:43.889Z,3.00
2022-08-03T04:54:50.146Z,3.00
2022-08-03T04:59:46.190Z,3.10
2022-08-03T05:04:45.847Z,2.70
2022-08-03T05:09:52.326Z,3.10
2022-08-03T05:14:48.386Z,3.30
2022-08-03T05:19:49.583Z,3.20
2022-08-03T05:24:49.049Z,4.30
2022-08-03T05:29:49.301Z,4.80
2022-08-03T05:34:50.367Z,5.40
2022-08-03T05:39:50.547Z,4.70
2022-08-03T05:44:51.621Z,5.00
2022-08-03T05:49:51.960Z,5.90
2022-08-03T05:54:57.494Z,6.90
2022-08-03T05:59:57.830Z,6.20
2022-08-03T06:04:53.829Z,4.10
2022-08-03T06:10:33.970Z,4.30
2022-08-03T06:14:56.090Z,3.60
2022-08-03T06:19:55.784Z,4.30
2022-08-03T06:24:56.497Z,3.70
2022-08-03T06:29:56.965Z,3.20
2022-08-03T06:34:57.634Z,3.00
2022-08-03T06:39:58.341Z,2.60
2022-08-03T06:44:58.985Z,2.70
2022-08-03T06:50:12.976Z,2.80
2022-08-03T06:55:01.237Z,3.00
2022-08-03T07:00:09.187Z,5.50
2022-08-03T07:05:02.586Z,3.60
2022-08-03T07:10:02.885Z,4.00
2022-08-03T07:15:03.561Z,4.00
2022-08-03T07:20:03.866Z,2.90
2022-08-03T07:25:04.509Z,4.30
2022-08-03T07:30:05.404Z,2.40
2022-08-03T07:35:08.886Z,2.80
2022-08-03T07:40:07.832Z,3.00
2022-08-03T07:45:07.599Z,2.60
2022-08-03T07:50:08.678Z,2.90
2022-08-03T07:55:09.111Z,2.30
2022-08-03T08:00:21.407Z,2.20
2022-08-03T08:05:10.576Z,2.10
2022-08-03T08:10:11.528Z,2.20
2022-08-03T08:15:12.212Z,2.70
2022-08-03T08:20:13.165Z,2.40
2022-08-03T08:25:13.817Z,2.90
2022-08-03T08:30:17.332Z,2.10
2022-08-03T08:35:15.152Z,1.90
2022-08-03T08:40:15.869Z,2.00
2022-08-03T08:45:16.724Z,2.00
2022-08-03T08:50:27.069Z,1.70
2022-08-03T08:55:18.973Z,1.80
2022-08-03T09:00:18.823Z,1.80
2022-08-03T09:05:22.524Z,1.60
2022-08-03T09:10:21.084Z,2.10
2022-08-03T09:15:20.828Z,1.70
2022-08-03T09:20:21.467Z,2.30
2022-08-03T09:25:29.144Z,1.90
2022-08-03T09:30:34.235Z,1.80
2022-08-03T09:35:51.708Z,1.90
2022-08-03T09:40:24.929Z,1.80
2022-08-03T09:45:24.623Z,2.30
2022-08-03T09:50:25.326Z,1.70
2022-08-03T09:56:34.962Z,1.70
2022-08-03T10:00:27.583Z,1.60
2022-08-03T10:05:27.245Z,1.80
2022-08-03T10:10:29.935Z,1.70
2022-08-03T10:16:21.477Z,1.60
2022-08-03T10:20:30.452Z,1.70
2022-08-03T10:25:33.230Z,2.30
2022-08-03T10:30:30.631Z,1.50
2022-08-03T10:35:31.313Z,1.80
2022-08-03T10:40:49.461Z,2.10
2022-08-03T10:45:33.589Z,2.60
2022-08-03T10:50:33.235Z,1.70
2022-08-03T10:55:33.907Z,1.60
2022-08-03T11:00:34.803Z,1.70
2022-08-03T11:05:35.484Z,1.60
2022-08-03T11:10:36.067Z,2.60
2022-08-03T11:15:36.735Z,1.80
2022-08-03T11:20:37.429Z,1.80
2022-08-03T11:25:54.636Z,2.20
2022-08-03T11:30:39.646Z,1.70
2022-08-03T11:35:39.401Z,1.40
2022-08-03T11:40:40.051Z,1.60
2022-08-03T11:45:40.740Z,1.50
2022-08-03T11:50:41.420Z,1.70
2022-08-03T11:55:42.072Z,1.50
2022-08-03T12:00:42.760Z,1.70
2022-08-03T12:05:51.104Z,1.50
2022-08-03T12:10:45.068Z,1.50
2022-08-03T12:15:44.731Z,1.60
2022-08-03T12:20:45.414Z,1.30
2022-08-03T12:25:46.087Z,1.20
2022-08-03T12:30:46.766Z,1.50
2022-08-03T12:35:52.621Z,1.50
2022-08-03T12:40:49.014Z,1.70
2022-08-03T12:45:48.709Z,1.80
2022-08-03T12:50:53.732Z,1.30
2022-08-03T12:56:05.281Z,1.50
2022-08-03T13:00:51.558Z,2.00
2022-08-03T13:05:51.083Z,1.20
2022-08-03T13:10:51.771Z,2.50
2022-08-03T13:15:52.478Z,1.60
2022-08-03T13:20:53.117Z,1.40
2022-08-03T13:25:55.716Z,1.40
2022-08-03T13:30:54.369Z,1.70
2022-08-03T13:35:55.048Z,1.70
2022-08-03T13:40:55.849Z,1.40
2022-08-03T13:45:57.789Z,1.50
2022-08-03T13:50:57.143Z,1.60
2022-08-03T13:55:58.048Z,1.80
2022-08-03T14:00:58.739Z,2.20
2022-08-03T14:05:59.423Z,1.60
2022-08-03T14:11:00.094Z,1.60
2022-08-03T14:16:00.783Z,1.40
2022-08-03T14:21:05.459Z,3.60
2022-08-03T14:26:02.302Z,1.60
2022-08-03T14:31:03.073Z,1.70
2022-08-03T14:36:03.753Z,1.50
2022-08-03T14:41:04.428Z,1.70
2022-08-03T14:46:05.087Z,1.50
2022-08-03T14:51:05.785Z,1.50
2022-08-03T14:56:10.039Z,1.40
2022-08-03T15:02:02.822Z,1.60
2022-08-03T15:06:08.787Z,1.60
2022-08-03T15:11:08.433Z,1.60
2022-08-03T15:16:09.111Z,1.50
2022-08-03T15:21:20.811Z,1.70
2022-08-03T15:32:00.069Z,1.60
2022-08-03T15:37:00.700Z,1.90
2022-08-03T15:42:01.477Z,1.80
2022-08-03T15:47:02.114Z,1.80
2022-08-03T15:52:02.766Z,1.80
2022-08-03T15:57:03.422Z,2.90
2022-08-03T16:02:04.235Z,2.00
2022-08-03T16:07:05.380Z,2.10
2022-08-03T16:12:06.045Z,1.50
2022-08-03T16:17:07.858Z,1.90
2022-08-03T16:22:08.152Z,1.70
2022-08-03T16:27:07.912Z,1.70
2022-08-03T16:32:09.657Z,1.80
2022-08-03T16:37:36.526Z,1.80
2022-08-03T16:42:10.437Z,1.60
2022-08-03T16:47:10.174Z,2.00
2022-08-03T16:52:13.023Z,1.90
2022-08-03T16:57:56.265Z,3.00
2022-08-03T17:02:13.129Z,3.00
2022-08-03T17:07:12.885Z,2.30
2022-08-03T17:12:13.388Z,2.20
2022-08-03T17:17:16.223Z,2.40
2022-08-03T17:22:16.048Z,1.60
2022-08-03T17:27:23.193Z,1.80
2022-08-03T17:32:21.414Z,1.90
2022-08-03T17:37:50.183Z,1.80
2022-08-03T17:42:30.568Z,2.80
2022-08-03T17:47:19.273Z,4.20
2022-08-03T17:52:18.710Z,2.40
2022-08-03T17:57:22.602Z,2.30
2022-08-03T18:02:29.781Z,5.20
2022-08-03T18:07:21.210Z,7.10
2022-08-03T18:12:22.317Z,9.60
2022-08-03T18:17:21.716Z,5.70
2022-08-03T18:22:25.200Z,2.70
2022-08-03T18:27:23.253Z,3.60
2022-08-03T18:32:25.384Z,2.80
2022-08-03T18:37:25.498Z,2.50
2022-08-03T18:42:26.177Z,10.80
2022-08-03T18:47:25.436Z,4.10
2022-08-03T18:52:28.023Z,2.80
2022-08-03T18:57:30.355Z,2.00
2022-08-03T19:02:28.389Z,4.30
2022-08-03T19:07:28.086Z,5.10
2022-08-03T19:12:31.172Z,4.60
2022-08-03T19:17:30.240Z,5.40
2022-08-03T19:22:31.026Z,4.40
2022-08-03T19:27:30.580Z,3.70
2022-08-03T19:32:31.233Z,4.70
2022-08-03T19:37:38.292Z,12.20
2022-08-03T19:42:33.522Z,7.40
2022-08-03T19:47:33.349Z,6.80
2022-08-03T19:52:34.078Z,6.80
2022-08-03T19:57:34.901Z,7.10
2022-08-03T20:02:35.557Z,7.10
2022-08-03T20:07:36.376Z,6.20
2022-08-03T20:12:39.376Z,9.60
2022-08-03T20:17:57.067Z,8.20
2022-08-03T20:22:39.441Z,8.60
2022-08-03T20:28:07.024Z,6.50
2022-08-03T20:32:40.592Z,11.10
2022-08-03T20:37:40.311Z,7.80
2022-08-03T20:42:41.106Z,7.00
2022-08-03T20:47:50.711Z,14.50
2022-08-03T20:52:43.953Z,9.60
2022-08-03T20:57:51.570Z,8.70
2022-08-03T21:02:44.627Z,9.10
2022-08-03T21:08:04.006Z,9.00
2022-08-03T21:12:45.942Z,9.60
2022-08-03T21:17:46.079Z,9.50
2022-08-03T21:22:46.718Z,10.10
2022-08-03T21:27:47.443Z,9.30
2022-08-03T21:32:56.232Z,9.10
2022-08-03T21:37:49.054Z,9.10
2022-08-03T21:42:49.948Z,9.00
2022-08-03T21:47:50.637Z,9.00
2022-08-03T21:52:51.644Z,9.10
2022-08-03T21:57:51.919Z,9.20
2022-08-03T22:02:54.497Z,15.30
2022-08-03T22:07:53.297Z,15.50
2022-08-03T22:12:54.149Z,11.80
2022-08-03T22:17:57.205Z,12.10
2022-08-03T22:22:56.743Z,8.00
2022-08-03T22:27:56.609Z,6.90
2022-08-03T22:32:57.328Z,7.90
2022-08-03T22:37:58.067Z,6.70
2022-08-03T22:42:58.797Z,6.90
2022-08-03T22:47:59.563Z,6.60
2022-08-03T22:53:00.345Z,7.40
2022-08-03T22:58:01.119Z,7.20
2022-08-03T23:03:02.119Z,6.80
2022-08-03T23:08:02.513Z,6.80
2022-08-03T23:13:03.275Z,7.00
2022-08-03T23:18:04.246Z,7.20
2022-08-03T23:23:04.946Z,7.20
2022-08-03T23:28:06.133Z,7.10
2022-08-03T23:33:06.002Z,7.30
2022-08-03T23:38:22.866Z,7.70
2022-08-03T23:43:08.445Z,8.50
2022-08-03T23:48:08.927Z,8.90
2022-08-03T23:53:08.697Z,7.30
2022-08-03T23:58:10.931Z,7.20
